sensor_id;sensor_type;location;lat;lon;timestamp;pressure;altitude;pressure_sealevel;temperature;humidity
37486;BME280;23341;50.296;18.960;2023-04-15T00:00:19;51799.72;;;-144.43;100.00
37486;BME280;23341;50.296;18.960;2023-04-15T00:05:43;51801.72;;;-144.43;100.00
37486;BME280;23341;50.296;18.960;2023-04-15T00:10:48;51871.72;;;-144.43;100.00
37486;BME280;23341;50.296;18.960;2023-04-15T00:15:54;51847.72;;;-144.43;100.00
37486;BME280;23341;50.296;18.960;2023-04-15T00:20:58;51885.72;;;-144.43;100.00
37486;BME280;23341;50.296;18.960;2023-04-15T00:26:02;51925.72;;;-144.43;100.00
37486;BME280;23341;50.296;18.960;2023-04-15T00:31:08;51919.69;;;-144.43;100.00
37486;BME280;23341;50.296;18.960;2023-04-15T00:36:12;51953.69;;;-144.43;100.00
37486;BME280;23341;50.296;18.960;2023-04-15T00:41:17;51931.69;;;-144.43;100.00
37486;BME280;23341;50.296;18.960;2023-04-15T00:46:26;51929.72;;;-144.43;100.00
37486;BME280;23341;50.296;18.960;2023-04-15T00:51:31;51945.69;;;-144.43;100.00
37486;BME280;23341;50.296;18.960;2023-04-15T00:56:38;51953.69;;;-144.43;100.00
37486;BME280;23341;50.296;18.960;2023-04-15T01:01:44;51933.69;;;-144.43;100.00
37486;BME280;23341;50.296;18.960;2023-04-15T01:06:50;51955.69;;;-144.43;100.00
37486;BME280;23341;50.296;18.960;2023-04-15T01:11:54;51941.72;;;-144.43;100.00
37486;BME280;23341;50.296;18.960;2023-04-15T01:17:00;51933.69;;;-144.43;100.00
37486;BME280;23341;50.296;18.960;2023-04-15T01:22:05;51929.72;;;-144.43;100.00
37486;BME280;23341;50.296;18.960;2023-04-15T01:27:10;51945.69;;;-144.43;100.00
37486;BME280;23341;50.296;18.960;2023-04-15T01:32:15;51923.72;;;-144.43;100.00
37486;BME280;23341;50.296;18.960;2023-04-15T01:37:19;51919.69;;;-144.43;100.00
37486;BME280;23341;50.296;18.960;2023-04-15T01:42:26;51933.69;;;-144.43;100.00
37486;BME280;23341;50.296;18.960;2023-04-15T01:47:31;51897.72;;;-144.43;100.00
37486;BME280;23341;50.296;18.960;2023-04-15T01:52:35;51899.72;;;-144.43;100.00
37486;BME280;23341;50.296;18.960;2023-04-15T01:57:41;51851.72;;;-144.43;100.00
37486;BME280;23341;50.296;18.960;2023-04-15T02:02:45;51809.72;;;-144.43;100.00
37486;BME280;23341;50.296;18.960;2023-04-15T02:07:49;51781.72;;;-144.43;100.00
37486;BME280;23341;50.296;18.960;2023-04-15T02:12:55;51765.72;;;-144.43;100.00
37486;BME280;23341;50.296;18.960;2023-04-15T02:18:03;51783.72;;;-144.43;100.00
37486;BME280;23341;50.296;18.960;2023-04-15T02:23:07;51773.72;;;-144.43;100.00
37486;BME280;23341;50.296;18.960;2023-04-15T02:28:14;51781.72;;;-144.43;100.00
37486;BME280;23341;50.296;18.960;2023-04-15T02:33:20;51759.72;;;-144.43;100.00
37486;BME280;23341;50.296;18.960;2023-04-15T02:38:24;51721.72;;;-144.43;100.00
37486;BME280;23341;50.296;18.960;2023-04-15T02:43:30;51649.72;;;-144.43;100.00
37486;BME280;23341;50.296;18.960;2023-04-15T02:48:34;51521.75;;;-144.43;100.00
37486;BME280;23341;50.296;18.960;2023-04-15T02:53:39;51503.75;;;-144.43;100.00
37486;BME280;23341;50.296;18.960;2023-04-15T02:58:45;51403.75;;;-144.43;100.00
37486;BME280;23341;50.296;18.960;2023-04-15T03:03:52;51405.75;;;-144.43;100.00
37486;BME280;23341;50.296;18.960;2023-04-15T03:08:57;51363.75;;;-144.43;100.00
37486;BME280;23341;50.296;18.960;2023-04-15T03:14:05;51305.78;;;-144.43;100.00
37486;BME280;23341;50.296;18.960;2023-04-15T03:19:12;51281.78;;;-144.43;99.93
37486;BME280;23341;50.296;18.960;2023-04-15T03:24:17;51263.78;;;-144.43;99.37
37486;BME280;23341;50.296;18.960;2023-04-15T03:29:23;51225.78;;;-144.43;99.18
37486;BME280;23341;50.296;18.960;2023-04-15T03:34:28;51199.78;;;-144.43;98.55
37486;BME280;23341;50.296;18.960;2023-04-15T03:39:32;51205.78;;;-144.43;99.00
37486;BME280;23341;50.296;18.960;2023-04-15T03:44:38;51185.81;;;-144.43;98.45
37486;BME280;23341;50.296;18.960;2023-04-15T03:49:42;51157.81;;;-144.43;98.27
37486;BME280;23341;50.296;18.960;2023-04-15T03:54:47;51125.81;;;-144.43;99.12
37486;BME280;23341;50.296;18.960;2023-04-15T03:59:52;51147.81;;;-144.43;99.51
37486;BME280;23341;50.296;18.960;2023-04-15T04:04:57;51131.81;;;-144.43;100.00
37486;BME280;23341;50.296;18.960;2023-04-15T04:10:01;51131.81;;;-144.43;99.44
37486;BME280;23341;50.296;18.960;2023-04-15T04:15:09;51133.81;;;-144.43;100.00
37486;BME280;23341;50.296;18.960;2023-04-15T04:20:13;51113.81;;;-144.43;100.00
37486;BME280;23341;50.296;18.960;2023-04-15T04:25:18;51179.81;;;-144.43;100.00
37486;BME280;23341;50.296;18.960;2023-04-15T04:30:23;51203.78;;;-144.43;100.00
37486;BME280;23341;50.296;18.960;2023-04-15T04:35:28;51225.78;;;-144.43;100.00
37486;BME280;23341;50.296;18.960;2023-04-15T04:40:32;51173.81;;;-144.43;99.67
37486;BME280;23341;50.296;18.960;2023-04-15T04:45:38;51237.78;;;-144.43;98.83
37486;BME280;23341;50.296;18.960;2023-04-15T04:50:43;51237.78;;;-144.43;98.48
37486;BME280;23341;50.296;18.960;2023-04-15T04:55:48;51233.78;;;-144.43;98.45
37486;BME280;23341;50.296;18.960;2023-04-15T05:00:54;51233.78;;;-144.43;97.91
37486;BME280;23341;50.296;18.960;2023-04-15T05:06:00;51245.78;;;-144.43;97.27
37486;BME280;23341;50.296;18.960;2023-04-15T05:11:08;51233.78;;;-144.43;96.59
37486;BME280;23341;50.296;18.960;2023-04-15T05:16:14;51249.78;;;-144.43;95.75
37486;BME280;23341;50.296;18.960;2023-04-15T05:21:19;51261.78;;;-144.43;94.19
37486;BME280;23341;50.296;18.960;2023-04-15T05:26:23;51247.78;;;-144.43;94.25
37486;BME280;23341;50.296;18.960;2023-04-15T05:31:30;51249.78;;;-144.43;93.96
37486;BME280;23341;50.296;18.960;2023-04-15T05:36:35;51241.78;;;-144.43;94.41
37486;BME280;23341;50.296;18.960;2023-04-15T05:41:40;51287.78;;;-144.43;94.35
37486;BME280;23341;50.296;18.960;2023-04-15T05:46:46;51249.78;;;-144.43;92.05
37486;BME280;23341;50.296;18.960;2023-04-15T05:51:50;51247.78;;;-144.43;92.70
37486;BME280;23341;50.296;18.960;2023-04-15T05:56:55;51289.78;;;-144.43;93.60
37486;BME280;23341;50.296;18.960;2023-04-15T06:02:01;51277.78;;;-144.43;93.56
37486;BME280;23341;50.296;18.960;2023-04-15T06:07:05;51369.75;;;-144.43;91.71
37486;BME280;23341;50.296;18.960;2023-04-15T06:12:10;51325.78;;;-144.43;89.86
37486;BME280;23341;50.296;18.960;2023-04-15T06:17:16;51361.75;;;-144.43;89.14
37486;BME280;23341;50.296;18.960;2023-04-15T06:22:21;51349.78;;;-144.43;86.99
37486;BME280;23341;50.296;18.960;2023-04-15T06:27:25;51389.75;;;-144.43;85.04
37486;BME280;23341;50.296;18.960;2023-04-15T06:32:31;51467.75;;;-144.43;82.65
37486;BME280;23341;50.296;18.960;2023-04-15T06:37:35;51793.72;;;-144.43;66.78
37486;BME280;23341;50.296;18.960;2023-04-15T06:42:40;52103.69;;;-144.43;51.03
37486;BME280;23341;50.296;18.960;2023-04-15T06:47:45;51713.72;;;-144.43;48.50
37486;BME280;23341;50.296;18.960;2023-04-15T06:52:50;51465.75;;;-144.43;51.01
37486;BME280;23341;50.296;18.960;2023-04-15T06:57:54;51447.75;;;-144.43;52.54
37486;BME280;23341;50.296;18.960;2023-04-15T07:03:00;51467.75;;;-144.43;49.99
37486;BME280;23341;50.296;18.960;2023-04-15T07:08:06;51893.72;;;-144.43;45.18
37486;BME280;23341;50.296;18.960;2023-04-15T07:13:10;51661.72;;;-144.43;44.93
37486;BME280;23341;50.296;18.960;2023-04-15T07:18:16;51539.75;;;-144.43;46.39
37486;BME280;23341;50.296;18.960;2023-04-15T07:23:20;51237.78;;;-144.43;47.93
37486;BME280;23341;50.296;18.960;2023-04-15T07:28:24;51785.72;;;-144.43;43.77
37486;BME280;23341;50.296;18.960;2023-04-15T07:33:30;52875.78;;;-144.43;36.03
37486;BME280;23341;50.296;18.960;2023-04-15T07:38:34;53217.88;;;-144.43;33.59
37486;BME280;23341;50.296;18.960;2023-04-15T07:43:39;52321.72;;;-144.43;34.58
37486;BME280;23341;50.296;18.960;2023-04-15T07:48:44;52691.75;;;-144.43;33.44
37486;BME280;23341;50.296;18.960;2023-04-15T07:53:49;52317.72;;;-144.43;34.89
37486;BME280;23341;50.296;18.960;2023-04-15T07:58:53;52093.69;;;-144.43;35.65
37486;BME280;23341;50.296;18.960;2023-04-15T08:03:59;53261.88;;;-144.43;32.34
37486;BME280;23341;50.296;18.960;2023-04-15T08:09:03;53437.94;;;-144.43;29.88
37486;BME280;23341;50.296;18.960;2023-04-15T08:14:07;52335.72;;;-144.43;32.31
37486;BME280;23341;50.296;18.960;2023-04-15T08:19:13;51921.72;;;-144.43;34.16
37486;BME280;23341;50.296;18.960;2023-04-15T08:24:18;51689.72;;;-144.43;35.62
37486;BME280;23341;50.296;18.960;2023-04-15T08:29:23;51137.81;;;-144.43;36.27
37486;BME280;23341;50.296;18.960;2023-04-15T08:34:28;51347.75;;;-144.43;35.53
37486;BME280;23341;50.296;18.960;2023-04-15T08:39:32;51375.75;;;-144.43;35.01
37486;BME280;23341;50.296;18.960;2023-04-15T08:44:37;50967.84;;;-144.43;38.60
37486;BME280;23341;50.296;18.960;2023-04-15T08:49:44;51001.84;;;-144.43;38.87
37486;BME280;23341;50.296;18.960;2023-04-15T08:54:56;51255.78;;;-144.43;37.60
37486;BME280;23341;50.296;18.960;2023-04-15T09:00:02;51045.84;;;-144.43;41.37
37486;BME280;23341;50.296;18.960;2023-04-15T09:05:09;51143.81;;;-144.43;40.79
37486;BME280;23341;50.296;18.960;2023-04-15T09:10:13;50977.84;;;-144.43;38.97
37486;BME280;23341;50.296;18.960;2023-04-15T09:15:17;51071.81;;;-144.43;35.35
37486;BME280;23341;50.296;18.960;2023-04-15T09:20:23;51135.81;;;-144.43;35.85
37486;BME280;23341;50.296;18.960;2023-04-15T09:25:28;50907.88;;;-144.43;38.87
37486;BME280;23341;50.296;18.960;2023-04-15T09:30:36;50927.88;;;-144.43;36.93
37486;BME280;23341;50.296;18.960;2023-04-15T09:35:55;50617.97;;;-144.43;37.30
37486;BME280;23341;50.296;18.960;2023-04-15T09:41:00;50460.03;;;-144.43;38.57
37486;BME280;23341;50.296;18.960;2023-04-15T09:46:05;50476.03;;;-144.43;39.54
37486;BME280;23341;50.296;18.960;2023-04-15T09:51:11;50422.03;;;-144.43;40.88
37486;BME280;23341;50.296;18.960;2023-04-15T09:56:15;50599.97;;;-144.43;38.50
37486;BME280;23341;50.296;18.960;2023-04-15T10:01:20;50695.94;;;-144.43;37.84
37486;BME280;23341;50.296;18.960;2023-04-15T10:06:26;50867.88;;;-144.43;37.05
37486;BME280;23341;50.296;18.960;2023-04-15T10:11:30;50709.94;;;-144.43;37.72
37486;BME280;23341;50.296;18.960;2023-04-15T10:16:37;50639.97;;;-144.43;38.11
37486;BME280;23341;50.296;18.960;2023-04-15T10:21:46;50627.97;;;-144.43;38.50
37486;BME280;23341;50.296;18.960;2023-04-15T10:26:51;50581.97;;;-144.43;38.67
37486;BME280;23341;50.296;18.960;2023-04-15T10:31:56;50625.97;;;-144.43;37.92
37486;BME280;23341;50.296;18.960;2023-04-15T10:37:04;50649.97;;;-144.43;37.93
37486;BME280;23341;50.296;18.960;2023-04-15T10:42:10;50494.00;;;-144.43;40.59
37486;BME280;23341;50.296;18.960;2023-04-15T10:47:23;50438.03;;;-144.43;39.72
37486;BME280;23341;50.296;18.960;2023-04-15T10:52:30;50825.91;;;-144.43;38.08
37486;BME280;23341;50.296;18.960;2023-04-15T10:57:37;50877.88;;;-144.43;36.93
37486;BME280;23341;50.296;18.960;2023-04-15T11:02:43;50575.97;;;-144.43;39.16
37486;BME280;23341;50.296;18.960;2023-04-15T11:07:53;50540.00;;;-144.43;39.24
37486;BME280;23341;50.296;18.960;2023-04-15T11:12:58;50454.03;;;-144.43;39.87
37486;BME280;23341;50.296;18.960;2023-04-15T11:18:09;50434.03;;;-144.43;40.55
37486;BME280;23341;50.296;18.960;2023-04-15T11:23:16;50368.06;;;-144.43;42.24
37486;BME280;23341;50.296;18.960;2023-04-15T11:28:24;50346.06;;;-144.43;41.98
37486;BME280;23341;50.296;18.960;2023-04-15T11:33:29;50370.06;;;-144.43;42.10
37486;BME280;23341;50.296;18.960;2023-04-15T11:38:35;50454.03;;;-144.43;41.12
37486;BME280;23341;50.296;18.960;2023-04-15T11:43:40;50633.97;;;-144.43;41.33
37486;BME280;23341;50.296;18.960;2023-04-15T11:48:45;50669.94;;;-144.43;45.02
37486;BME280;23341;50.296;18.960;2023-04-15T11:53:51;50554.00;;;-144.43;45.88
37486;BME280;23341;50.296;18.960;2023-04-15T11:58:57;50745.91;;;-144.43;45.92
37486;BME280;23341;50.296;18.960;2023-04-15T12:04:10;50699.94;;;-144.43;44.24
37486;BME280;23341;50.296;18.960;2023-04-15T12:09:16;50605.97;;;-144.43;44.61
37486;BME280;23341;50.296;18.960;2023-04-15T12:14:24;50478.03;;;-144.43;46.31
37486;BME280;23341;50.296;18.960;2023-04-15T12:19:33;50478.03;;;-144.43;46.42
37486;BME280;23341;50.296;18.960;2023-04-15T12:24:41;50408.06;;;-144.43;46.66
37486;BME280;23341;50.296;18.960;2023-04-15T12:29:49;50408.06;;;-144.43;46.58
37486;BME280;23341;50.296;18.960;2023-04-15T12:34:54;50276.09;;;-144.43;45.00
37486;BME280;23341;50.296;18.960;2023-04-15T12:40:00;50336.06;;;-144.43;45.87
37486;BME280;23341;50.296;18.960;2023-04-15T12:45:05;50358.06;;;-144.43;47.51
37486;BME280;23341;50.296;18.960;2023-04-15T12:50:09;50390.06;;;-144.43;47.31
37486;BME280;23341;50.296;18.960;2023-04-15T12:55:15;50374.06;;;-144.43;47.10
37486;BME280;23341;50.296;18.960;2023-04-15T13:00:19;50384.06;;;-144.43;47.29
37486;BME280;23341;50.296;18.960;2023-04-15T13:05:24;50346.06;;;-144.43;46.23
37486;BME280;23341;50.296;18.960;2023-04-15T13:10:30;50364.06;;;-144.43;46.07
37486;BME280;23341;50.296;18.960;2023-04-15T13:15:34;50384.06;;;-144.43;46.49
37486;BME280;23341;50.296;18.960;2023-04-15T13:20:38;50571.97;;;-144.43;46.10
37486;BME280;23341;50.296;18.960;2023-04-15T13:25:45;50941.88;;;-144.43;39.26
37486;BME280;23341;50.296;18.960;2023-04-15T13:30:49;51399.75;;;-144.43;36.48
37486;BME280;23341;50.296;18.960;2023-04-15T13:35:53;51451.75;;;-144.43;34.96
37486;BME280;23341;50.296;18.960;2023-04-15T13:40:59;51733.72;;;-144.43;33.32
37486;BME280;23341;50.296;18.960;2023-04-15T13:46:04;52067.69;;;-144.43;32.01
37486;BME280;23341;50.296;18.960;2023-04-15T13:51:13;52355.72;;;-144.43;29.74
37486;BME280;23341;50.296;18.960;2023-04-15T13:56:19;51487.75;;;-144.43;34.44
37486;BME280;23341;50.296;18.960;2023-04-15T14:01:23;51045.84;;;-144.43;35.17
37486;BME280;23341;50.296;18.960;2023-04-15T14:06:29;50687.94;;;-144.43;38.17
37486;BME280;23341;50.296;18.960;2023-04-15T14:11:37;50625.97;;;-144.43;38.25
37486;BME280;23341;50.296;18.960;2023-04-15T14:16:42;50526.00;;;-144.43;39.36
37486;BME280;23341;50.296;18.960;2023-04-15T14:21:47;50444.03;;;-144.43;40.63
37486;BME280;23341;50.296;18.960;2023-04-15T14:26:53;50436.03;;;-144.43;43.70
37486;BME280;23341;50.296;18.960;2023-04-15T14:31:58;50406.06;;;-144.43;41.50
37486;BME280;23341;50.296;18.960;2023-04-15T14:37:13;50302.09;;;-144.43;42.31
37486;BME280;23341;50.296;18.960;2023-04-15T14:42:19;50316.09;;;-144.43;43.10
37486;BME280;23341;50.296;18.960;2023-04-15T14:47:24;50284.09;;;-144.43;43.40
37486;BME280;23341;50.296;18.960;2023-04-15T14:52:29;50336.06;;;-144.43;44.40
37486;BME280;23341;50.296;18.960;2023-04-15T14:57:36;50360.06;;;-144.43;45.16
37486;BME280;23341;50.296;18.960;2023-04-15T15:02:40;50382.06;;;-144.43;44.97
37486;BME280;23341;50.296;18.960;2023-04-15T15:07:45;50330.09;;;-144.43;45.18
37486;BME280;23341;50.296;18.960;2023-04-15T15:12:51;50318.09;;;-144.43;46.02
37486;BME280;23341;50.296;18.960;2023-04-15T15:17:55;50280.09;;;-144.43;45.93
37486;BME280;23341;50.296;18.960;2023-04-15T15:23:00;50278.09;;;-144.43;44.87
37486;BME280;23341;50.296;18.960;2023-04-15T15:28:06;50298.09;;;-144.43;45.61
37486;BME280;23341;50.296;18.960;2023-04-15T15:33:10;50142.16;;;-144.43;45.14
37486;BME280;23341;50.296;18.960;2023-04-15T15:38:14;50154.16;;;-144.43;46.03
37486;BME280;23341;50.296;18.960;2023-04-15T15:43:20;50112.19;;;-144.43;45.48
37486;BME280;23341;50.296;18.960;2023-04-15T15:48:24;50118.19;;;-144.43;45.67
37486;BME280;23341;50.296;18.960;2023-04-15T15:53:29;50154.16;;;-144.43;46.19
37486;BME280;23341;50.296;18.960;2023-04-15T15:58:35;50162.16;;;-144.43;45.72
37486;BME280;23341;50.296;18.960;2023-04-15T16:03:40;50178.16;;;-144.43;45.00
37486;BME280;23341;50.296;18.960;2023-04-15T16:08:45;50202.13;;;-144.43;44.77
37486;BME280;23341;50.296;18.960;2023-04-15T16:13:50;50248.13;;;-144.43;45.28
37486;BME280;23341;50.296;18.960;2023-04-15T16:18:56;50212.13;;;-144.43;45.03
37486;BME280;23341;50.296;18.960;2023-04-15T16:24:00;50262.13;;;-144.43;44.91
37486;BME280;23341;50.296;18.960;2023-04-15T16:29:06;50182.16;;;-144.43;44.03
37486;BME280;23341;50.296;18.960;2023-04-15T16:34:11;50170.16;;;-144.43;44.57
37486;BME280;23341;50.296;18.960;2023-04-15T16:39:15;50150.16;;;-144.43;51.14
37486;BME280;23341;50.296;18.960;2023-04-15T16:44:20;50110.19;;;-144.43;59.67
37486;BME280;23341;50.296;18.960;2023-04-15T16:49:25;50082.19;;;-144.43;64.50
37486;BME280;23341;50.296;18.960;2023-04-15T16:54:29;50074.19;;;-144.43;67.96
37486;BME280;23341;50.296;18.960;2023-04-15T16:59:36;50138.16;;;-144.43;69.96
37486;BME280;23341;50.296;18.960;2023-04-15T17:04:41;50150.16;;;-144.43;70.73
37486;BME280;23341;50.296;18.960;2023-04-15T17:09:45;50186.16;;;-144.43;73.23
37486;BME280;23341;50.296;18.960;2023-04-15T17:14:51;50202.13;;;-144.43;78.16
37486;BME280;23341;50.296;18.960;2023-04-15T17:19:55;50214.13;;;-144.43;80.60
37486;BME280;23341;50.296;18.960;2023-04-15T17:24:59;50232.13;;;-144.43;83.62
37486;BME280;23341;50.296;18.960;2023-04-15T17:30:06;50306.09;;;-144.43;85.88
37486;BME280;23341;50.296;18.960;2023-04-15T17:35:11;50330.09;;;-144.43;86.55
37486;BME280;23341;50.296;18.960;2023-04-15T17:40:15;50348.06;;;-144.43;85.89
37486;BME280;23341;50.296;18.960;2023-04-15T17:45:21;50392.06;;;-144.43;86.71
37486;BME280;23341;50.296;18.960;2023-04-15T17:50:26;50398.06;;;-144.43;86.94
37486;BME280;23341;50.296;18.960;2023-04-15T17:55:31;50575.97;;;-144.43;93.68
37486;BME280;23341;50.296;18.960;2023-04-15T18:00:37;50697.94;;;-144.43;97.01
37486;BME280;23341;50.296;18.960;2023-04-15T18:05:41;51003.84;;;-144.43;100.00
37486;BME280;23341;50.296;18.960;2023-04-15T18:10:46;51485.75;;;-144.43;100.00
37486;BME280;23341;50.296;18.960;2023-04-15T18:15:52;51725.72;;;-144.43;100.00
37486;BME280;23341;50.296;18.960;2023-04-15T18:20:56;51755.72;;;-144.43;100.00
37486;BME280;23341;50.296;18.960;2023-04-15T18:26:01;51861.72;;;-144.43;100.00
37486;BME280;23341;50.296;18.960;2023-04-15T18:31:07;51873.72;;;-144.43;100.00
37486;BME280;23341;50.296;18.960;2023-04-15T18:36:11;51879.72;;;-144.43;100.00
37486;BME280;23341;50.296;18.960;2023-04-15T18:41:15;51895.72;;;-144.43;100.00
37486;BME280;23341;50.296;18.960;2023-04-15T18:46:21;51913.72;;;-144.43;100.00
37486;BME280;23341;50.296;18.960;2023-04-15T18:51:26;51945.69;;;-144.43;100.00
37486;BME280;23341;50.296;18.960;2023-04-15T18:56:30;51965.69;;;-144.43;100.00
37486;BME280;23341;50.296;18.960;2023-04-15T19:01:36;52003.69;;;-144.43;100.00
37486;BME280;23341;50.296;18.960;2023-04-15T19:06:40;52041.69;;;-144.43;100.00
37486;BME280;23341;50.296;18.960;2023-04-15T19:11:45;52073.69;;;-144.43;100.00
37486;BME280;23341;50.296;18.960;2023-04-15T19:16:51;52011.69;;;-144.43;100.00
37486;BME280;23341;50.296;18.960;2023-04-15T19:21:55;51989.69;;;-144.43;100.00
37486;BME280;23341;50.296;18.960;2023-04-15T19:27:00;52047.69;;;-144.43;100.00
37486;BME280;23341;50.296;18.960;2023-04-15T19:32:06;52041.69;;;-144.43;100.00
37486;BME280;23341;50.296;18.960;2023-04-15T19:37:10;52037.69;;;-144.43;100.00
37486;BME280;23341;50.296;18.960;2023-04-15T19:42:15;51985.69;;;-144.43;100.00
37486;BME280;23341;50.296;18.960;2023-04-15T19:47:21;52015.69;;;-144.43;100.00
37486;BME280;23341;50.296;18.960;2023-04-15T19:52:25;52009.69;;;-144.43;100.00
37486;BME280;23341;50.296;18.960;2023-04-15T19:57:30;52043.69;;;-144.43;100.00
37486;BME280;23341;50.296;18.960;2023-04-15T20:02:35;51957.69;;;-144.43;100.00
37486;BME280;23341;50.296;18.960;2023-04-15T20:07:40;51977.69;;;-144.43;100.00
37486;BME280;23341;50.296;18.960;2023-04-15T20:12:47;51973.69;;;-144.43;100.00
37486;BME280;23341;50.296;18.960;2023-04-15T20:17:56;51949.69;;;-144.43;100.00
37486;BME280;23341;50.296;18.960;2023-04-15T20:23:02;51985.69;;;-144.43;100.00
37486;BME280;23341;50.296;18.960;2023-04-15T20:28:06;51961.69;;;-144.43;100.00
37486;BME280;23341;50.296;18.960;2023-04-15T20:33:13;51997.69;;;-144.43;100.00
37486;BME280;23341;50.296;18.960;2023-04-15T20:38:17;51953.69;;;-144.43;100.00
37486;BME280;23341;50.296;18.960;2023-04-15T20:43:21;51929.72;;;-144.43;100.00
37486;BME280;23341;50.296;18.960;2023-04-15T20:48:28;51953.69;;;-144.43;100.00
37486;BME280;23341;50.296;18.960;2023-04-15T20:53:33;51941.72;;;-144.43;100.00
37486;BME280;23341;50.296;18.960;2023-04-15T20:58:37;51963.69;;;-144.43;100.00
37486;BME280;23341;50.296;18.960;2023-04-15T21:03:43;51965.69;;;-144.43;100.00
37486;BME280;23341;50.296;18.960;2023-04-15T21:08:47;51949.69;;;-144.43;100.00
37486;BME280;23341;50.296;18.960;2023-04-15T21:13:54;51999.69;;;-144.43;100.00
37486;BME280;23341;50.296;18.960;2023-04-15T21:18:59;51963.69;;;-144.43;100.00
37486;BME280;23341;50.296;18.960;2023-04-15T21:24:04;51985.69;;;-144.43;100.00
37486;BME280;23341;50.296;18.960;2023-04-15T21:29:09;51977.69;;;-144.43;100.00
37486;BME280;23341;50.296;18.960;2023-04-15T21:34:15;52001.69;;;-144.43;100.00
37486;BME280;23341;50.296;18.960;2023-04-15T21:39:19;51961.69;;;-144.43;100.00
37486;BME280;23341;50.296;18.960;2023-04-15T21:44:24;51941.72;;;-144.43;100.00
37486;BME280;23341;50.296;18.960;2023-04-15T21:49:30;51893.72;;;-144.43;100.00
37486;BME280;23341;50.296;18.960;2023-04-15T21:54:34;51875.72;;;-144.43;100.00
37486;BME280;23341;50.296;18.960;2023-04-15T21:59:39;51929.72;;;-144.43;100.00
37486;BME280;23341;50.296;18.960;2023-04-15T22:04:45;51959.72;;;-144.43;100.00
37486;BME280;23341;50.296;18.960;2023-04-15T22:09:49;51881.72;;;-144.43;100.00
37486;BME280;23341;50.296;18.960;2023-04-15T22:14:54;51903.72;;;-144.43;100.00
37486;BME280;23341;50.296;18.960;2023-04-15T22:20:01;51893.72;;;-144.43;100.00
37486;BME280;23341;50.296;18.960;2023-04-15T22:25:07;51917.72;;;-144.43;100.00
37486;BME280;23341;50.296;18.960;2023-04-15T22:30:12;51893.72;;;-144.43;100.00
37486;BME280;23341;50.296;18.960;2023-04-15T22:35:17;51897.72;;;-144.43;100.00
37486;BME280;23341;50.296;18.960;2023-04-15T22:40:22;51889.72;;;-144.43;100.00
37486;BME280;23341;50.296;18.960;2023-04-15T22:45:26;51883.72;;;-144.43;100.00
37486;BME280;23341;50.296;18.960;2023-04-15T22:50:32;51873.72;;;-144.43;100.00
37486;BME280;23341;50.296;18.960;2023-04-15T22:55:36;51915.72;;;-144.43;100.00
37486;BME280;23341;50.296;18.960;2023-04-15T23:00:41;51871.72;;;-144.43;100.00
37486;BME280;23341;50.296;18.960;2023-04-15T23:05:47;51909.72;;;-144.43;100.00
37486;BME280;23341;50.296;18.960;2023-04-15T23:10:51;51881.72;;;-144.43;100.00
37486;BME280;23341;50.296;18.960;2023-04-15T23:15:55;51865.72;;;-144.43;100.00
37486;BME280;23341;50.296;18.960;2023-04-15T23:21:01;51891.72;;;-144.43;100.00
37486;BME280;23341;50.296;18.960;2023-04-15T23:26:06;51893.72;;;-144.43;100.00
37486;BME280;23341;50.296;18.960;2023-04-15T23:31:10;51865.72;;;-144.43;100.00
37486;BME280;23341;50.296;18.960;2023-04-15T23:36:16;51865.72;;;-144.43;100.00
37486;BME280;23341;50.296;18.960;2023-04-15T23:41:21;51875.72;;;-144.43;100.00
37486;BME280;23341;50.296;18.960;2023-04-15T23:46:25;51873.72;;;-144.43;100.00
37486;BME280;23341;50.296;18.960;2023-04-15T23:51:31;51849.72;;;-144.43;100.00
37486;BME280;23341;50.296;18.960;2023-04-15T23:56:35;51859.72;;;-144.43;100.00
